createdAt,value
2023-05-10T00:01:21.283Z,6.15
2023-05-10T00:03:48.079Z,6.08
2023-05-10T00:06:15.849Z,6.12
2023-05-10T00:08:42.693Z,5.97
2023-05-10T00:11:09.356Z,5.98
2023-05-10T00:13:36.045Z,5.96
2023-05-10T00:16:02.927Z,5.93
2023-05-10T00:18:29.699Z,5.83
2023-05-10T00:20:56.285Z,5.81
2023-05-10T00:23:23.112Z,5.78
2023-05-10T00:25:49.790Z,5.82
2023-05-10T00:28:16.463Z,5.84
2023-05-10T00:30:43.161Z,5.77
2023-05-10T00:33:09.902Z,5.67
2023-05-10T00:35:37.156Z,5.58
2023-05-10T00:38:03.821Z,5.57
2023-05-10T00:40:31.680Z,5.45
2023-05-10T00:42:59.358Z,5.42
2023-05-10T00:45:26.141Z,5.32
2023-05-10T00:47:56.347Z,5.23
2023-05-10T00:50:24.027Z,5.37
2023-05-10T00:52:51.490Z,5.27
2023-05-10T00:55:19.396Z,5.15
2023-05-10T00:57:46.868Z,5.22
2023-05-10T01:00:19.025Z,5.11
2023-05-10T01:02:47.581Z,4.98
2023-05-10T01:05:15.040Z,4.97
2023-05-10T01:07:42.239Z,4.99
2023-05-10T01:10:09.953Z,4.93
2023-05-10T01:12:43.805Z,4.97
2023-05-10T01:15:12.571Z,4.96
2023-05-10T01:17:43.568Z,4.83
2023-05-10T01:20:11.781Z,4.79
2023-05-10T01:22:59.341Z,4.79
2023-05-10T01:25:52.046Z,4.75
2023-05-10T01:28:49.586Z,4.61
2023-05-10T01:31:29.883Z,4.46
2023-05-10T01:34:17.485Z,4.38
2023-05-10T01:36:52.355Z,4.40
2023-05-10T01:39:36.970Z,4.39
2023-05-10T01:42:10.002Z,4.29
2023-05-10T01:44:45.691Z,4.26
2023-05-10T01:47:16.923Z,4.21
2023-05-10T01:49:56.134Z,4.16
2023-05-10T01:52:34.465Z,4.06
2023-05-10T01:55:09.194Z,3.89
2023-05-10T01:57:38.438Z,3.76
2023-05-10T02:00:05.997Z,3.62
2023-05-10T02:02:38.838Z,3.67
2023-05-10T02:05:07.962Z,3.70
2023-05-10T02:07:37.617Z,3.58
2023-05-10T02:10:07.447Z,3.54
2023-05-10T02:12:38.793Z,3.41
2023-05-10T02:15:08.151Z,3.28
2023-05-10T02:17:37.404Z,3.09
2023-05-10T02:20:07.620Z,3.17
2023-05-10T02:22:37.003Z,3.15
2023-05-10T02:25:04.983Z,3.12
2023-05-10T02:27:32.691Z,3.12
2023-05-10T02:29:59.938Z,3.12
2023-05-10T02:32:28.834Z,3.05
2023-05-10T02:34:58.476Z,2.93
2023-05-10T02:37:26.584Z,2.74
2023-05-10T02:39:56.151Z,2.70
2023-05-10T02:42:28.858Z,2.59
2023-05-10T02:45:00.672Z,2.55
2023-05-10T02:47:28.567Z,2.59
2023-05-10T02:49:55.718Z,2.65
2023-05-10T02:52:29.310Z,2.67
2023-05-10T02:54:59.680Z,2.82
2023-05-10T02:57:30.087Z,2.85
2023-05-10T02:59:56.842Z,2.74
2023-05-10T03:02:23.677Z,2.65
2023-05-10T03:04:50.565Z,2.66
2023-05-10T03:07:20.475Z,2.75
2023-05-10T03:09:47.233Z,2.72
2023-05-10T03:12:51.321Z,2.59
2023-05-10T03:15:21.381Z,2.57
2023-05-10T03:17:56.717Z,2.66
2023-05-10T03:20:42.531Z,2.68
2023-05-10T03:23:17.947Z,2.68
2023-05-10T03:25:45.766Z,2.63
2023-05-10T03:28:15.537Z,2.79
2023-05-10T03:30:44.606Z,2.81
2023-05-10T03:33:11.989Z,2.90
2023-05-10T03:35:38.590Z,2.86
2023-05-10T03:38:05.589Z,2.84
2023-05-10T03:40:33.205Z,3.01
2023-05-10T03:43:00.471Z,3.48
2023-05-10T03:45:27.523Z,3.91
2023-05-10T03:47:55.115Z,4.37
2023-05-10T03:50:22.250Z,4.94
2023-05-10T03:52:49.356Z,5.56
2023-05-10T03:55:16.357Z,5.92
2023-05-10T03:57:43.307Z,6.37
2023-05-10T04:00:11.064Z,6.82
2023-05-10T04:02:38.659Z,7.19
2023-05-10T04:05:05.952Z,7.38
2023-05-10T04:07:32.644Z,7.59
2023-05-10T04:09:59.317Z,7.85
2023-05-10T04:12:26.187Z,8.09
2023-05-10T04:14:53.453Z,8.44
2023-05-10T04:17:20.180Z,8.69
2023-05-10T04:19:46.867Z,8.94
2023-05-10T04:22:13.487Z,9.28
2023-05-10T04:24:40.164Z,9.52
2023-05-10T04:27:06.875Z,9.79
2023-05-10T04:29:33.519Z,9.93
2023-05-10T04:32:00.275Z,10.09
2023-05-10T04:34:27.170Z,10.69
2023-05-10T04:36:53.885Z,10.89
2023-05-10T04:39:20.749Z,11.06
2023-05-10T04:41:47.545Z,11.37
2023-05-10T04:44:14.248Z,11.72
2023-05-10T04:46:40.942Z,11.99
2023-05-10T04:49:07.663Z,12.31
2023-05-10T04:51:34.521Z,12.39
2023-05-10T04:54:06.497Z,12.53
2023-05-10T04:56:33.507Z,12.67
2023-05-10T04:59:00.421Z,12.80
2023-05-10T05:01:27.295Z,12.94
2023-05-10T05:03:54.278Z,12.98
2023-05-10T05:06:22.323Z,13.07
2023-05-10T05:08:50.686Z,13.23
2023-05-10T05:11:18.287Z,13.32
2023-05-10T05:13:45.125Z,13.54
2023-05-10T05:16:12.822Z,13.71
2023-05-10T05:18:39.697Z,13.76
2023-05-10T05:21:19.574Z,14.01
2023-05-10T05:23:47.369Z,13.82
2023-05-10T05:26:14.129Z,13.89
2023-05-10T05:28:40.841Z,14.03
2023-05-10T05:31:11.275Z,14.27
2023-05-10T05:33:38.382Z,14.58
2023-05-10T05:36:06.570Z,14.67
2023-05-10T05:38:33.596Z,14.63
2023-05-10T05:41:00.422Z,14.54
2023-05-10T05:43:27.541Z,14.21
2023-05-10T05:45:59.172Z,14.05
2023-05-10T05:48:27.503Z,14.12
2023-05-10T05:51:00.349Z,14.61
2023-05-10T05:53:27.393Z,14.47
2023-05-10T05:55:54.545Z,14.49
2023-05-10T05:58:22.170Z,14.56
2023-05-10T06:00:49.588Z,14.36
2023-05-10T06:03:16.833Z,14.18
2023-05-10T06:05:43.676Z,14.24
2023-05-10T06:08:10.923Z,14.22
2023-05-10T06:10:37.858Z,14.04
2023-05-10T06:13:04.632Z,14.18
2023-05-10T06:15:31.347Z,14.15
2023-05-10T06:17:58.057Z,14.19
2023-05-10T06:20:24.835Z,14.13
2023-05-10T06:22:51.734Z,14.06
2023-05-10T06:25:19.575Z,13.89
2023-05-10T06:27:50.967Z,13.56
2023-05-10T06:30:20.013Z,13.97
2023-05-10T06:32:47.333Z,14.15
2023-05-10T06:35:14.209Z,13.93
2023-05-10T06:37:41.084Z,13.77
2023-05-10T06:40:08.725Z,13.61
2023-05-10T06:42:35.395Z,13.77
2023-05-10T06:45:02.273Z,13.64
2023-05-10T06:47:28.915Z,13.77
2023-05-10T06:49:55.986Z,13.84
2023-05-10T06:52:22.732Z,13.95
2023-05-10T06:54:49.535Z,13.96
2023-05-10T06:57:30.714Z,14.10
2023-05-10T07:00:00.073Z,14.61
2023-05-10T07:02:27.290Z,14.97
2023-05-10T07:04:54.384Z,15.07
2023-05-10T07:07:21.478Z,15.37
2023-05-10T07:09:48.257Z,15.18
2023-05-10T07:12:16.093Z,15.18
2023-05-10T07:14:43.280Z,15.34
2023-05-10T07:17:10.409Z,15.59
2023-05-10T07:19:37.363Z,15.51
2023-05-10T07:22:07.154Z,15.43
2023-05-10T07:24:34.299Z,15.44
2023-05-10T07:27:01.018Z,15.03
2023-05-10T07:29:27.807Z,14.85
2023-05-10T07:31:57.089Z,14.97
2023-05-10T07:34:25.669Z,15.18
2023-05-10T07:36:53.105Z,15.26
2023-05-10T07:39:26.516Z,15.38
2023-05-10T07:41:58.043Z,15.16
2023-05-10T07:44:24.805Z,15.15
2023-05-10T07:46:51.622Z,15.21
2023-05-10T07:49:18.548Z,14.88
2023-05-10T07:51:45.345Z,14.87
2023-05-10T07:54:12.137Z,14.45
2023-05-10T07:56:39.309Z,14.52
2023-05-10T07:59:09.285Z,14.73
2023-05-10T08:01:37.161Z,14.57
2023-05-10T08:04:04.069Z,14.80
2023-05-10T08:06:31.358Z,14.78
2023-05-10T08:08:58.340Z,14.44
2023-05-10T08:11:25.410Z,14.70
2023-05-10T08:13:52.442Z,14.65
2023-05-10T08:16:19.524Z,14.80
2023-05-10T08:18:48.195Z,14.57
2023-05-10T08:21:15.880Z,14.39
2023-05-10T08:23:44.756Z,13.95
2023-05-10T08:26:12.013Z,13.82
2023-05-10T08:28:38.723Z,14.08
2023-05-10T08:31:06.438Z,13.97
2023-05-10T08:33:33.184Z,13.88
2023-05-10T08:35:59.974Z,14.03
2023-05-10T08:38:27.099Z,14.23
2023-05-10T08:40:57.840Z,14.17
2023-05-10T08:43:30.323Z,14.13
2023-05-10T08:45:58.150Z,13.97
2023-05-10T08:48:26.055Z,13.77
2023-05-10T08:50:56.198Z,14.01
2023-05-10T08:53:27.834Z,13.84
2023-05-10T08:55:54.771Z,13.87
2023-05-10T08:58:21.474Z,13.82
2023-05-10T09:00:50.191Z,13.75
2023-05-10T09:03:17.181Z,13.49
2023-05-10T09:05:44.001Z,13.45
2023-05-10T09:08:11.055Z,13.40
2023-05-10T09:10:40.739Z,13.45
2023-05-10T09:13:10.235Z,13.43
2023-05-10T09:15:37.029Z,13.29
2023-05-10T09:18:03.820Z,13.36
2023-05-10T09:20:30.658Z,13.45
2023-05-10T09:22:57.391Z,13.60
2023-05-10T09:25:24.235Z,13.64
2023-05-10T09:27:51.311Z,13.50
2023-05-10T09:30:29.866Z,13.59
2023-05-10T09:32:58.172Z,13.83
2023-05-10T09:35:29.505Z,13.90
2023-05-10T09:37:59.312Z,13.82
2023-05-10T09:40:28.415Z,13.68
2023-05-10T09:43:08.329Z,13.89
2023-05-10T09:45:39.186Z,13.93
2023-05-10T09:48:06.625Z,13.91
2023-05-10T09:50:39.391Z,13.98
2023-05-10T09:53:06.130Z,14.14
2023-05-10T09:55:47.114Z,14.19
2023-05-10T09:58:15.509Z,14.20
2023-05-10T10:00:48.956Z,14.24
2023-05-10T10:03:17.403Z,14.32
2023-05-10T10:05:45.118Z,14.37
2023-05-10T10:08:13.325Z,14.41
2023-05-10T10:10:46.856Z,14.66
2023-05-10T10:13:14.410Z,14.91
2023-05-10T10:15:41.478Z,15.00
2023-05-10T10:18:12.562Z,14.81
2023-05-10T10:20:39.352Z,14.57
2023-05-10T10:23:05.975Z,14.45
2023-05-10T10:25:32.917Z,14.53
2023-05-10T10:28:12.248Z,14.60
2023-05-10T10:30:49.783Z,14.65
2023-05-10T10:33:42.041Z,14.70
2023-05-10T10:36:08.884Z,14.52
2023-05-10T10:38:47.903Z,14.69
2023-05-10T10:41:51.182Z,14.71
2023-05-10T10:44:27.338Z,14.73
2023-05-10T10:47:13.297Z,14.77
2023-05-10T10:49:47.055Z,14.52
2023-05-10T10:52:29.764Z,14.73
2023-05-10T10:55:00.602Z,14.83
2023-05-10T10:57:27.811Z,14.89
2023-05-10T11:00:33.792Z,14.90
2023-05-10T11:03:20.072Z,14.97
2023-05-10T11:05:50.714Z,14.90
2023-05-10T11:08:38.344Z,15.00
2023-05-10T11:11:10.056Z,14.79
2023-05-10T11:13:50.900Z,14.98
2023-05-10T11:16:18.265Z,14.89
2023-05-10T11:19:12.335Z,14.82
2023-05-10T11:21:49.318Z,14.79
2023-05-10T11:24:19.181Z,14.95
2023-05-10T11:26:46.065Z,15.26
2023-05-10T11:29:14.726Z,15.34
2023-05-10T11:31:46.354Z,14.98
2023-05-10T11:34:23.589Z,15.20
2023-05-10T11:36:55.133Z,15.05
2023-05-10T11:39:22.815Z,15.10
2023-05-10T11:41:50.738Z,14.79
2023-05-10T11:44:17.835Z,15.00
2023-05-10T11:46:44.804Z,15.06
2023-05-10T11:49:14.555Z,15.24
2023-05-10T11:51:43.374Z,15.30
2023-05-10T11:54:12.939Z,15.48
2023-05-10T11:56:41.015Z,15.33
2023-05-10T11:59:09.241Z,15.32
2023-05-10T12:01:37.939Z,15.33
2023-05-10T12:04:04.904Z,15.28
2023-05-10T12:06:34.329Z,15.33
2023-05-10T12:09:08.415Z,15.46
2023-05-10T12:11:44.063Z,15.35
2023-05-10T12:14:11.812Z,15.40
2023-05-10T12:16:38.707Z,15.42
2023-05-10T12:19:06.608Z,15.58
2023-05-10T12:21:33.860Z,15.58
2023-05-10T12:24:03.352Z,15.43
2023-05-10T12:26:30.963Z,15.49
2023-05-10T12:29:21.293Z,15.50
2023-05-10T12:31:56.987Z,15.47
2023-05-10T12:34:35.311Z,15.45
2023-05-10T12:37:02.888Z,15.54
2023-05-10T12:39:43.202Z,15.50
2023-05-10T12:42:10.125Z,15.46
2023-05-10T12:44:36.833Z,15.39
2023-05-10T12:47:03.727Z,15.32
2023-05-10T12:49:30.527Z,15.44
2023-05-10T12:51:57.263Z,15.39
2023-05-10T12:54:24.082Z,15.42
2023-05-10T12:56:50.710Z,15.39
2023-05-10T12:59:17.610Z,15.68
2023-05-10T13:01:44.394Z,15.76
2023-05-10T13:04:11.339Z,15.77
2023-05-10T13:06:38.328Z,15.79
2023-05-10T13:09:05.130Z,15.74
2023-05-10T13:11:31.926Z,15.76
2023-05-10T13:13:58.951Z,15.78
2023-05-10T13:16:25.980Z,15.80
2023-05-10T13:18:53.072Z,15.95
2023-05-10T13:21:19.877Z,15.90
2023-05-10T13:23:47.818Z,15.94
2023-05-10T13:26:16.777Z,15.90
2023-05-10T13:28:44.760Z,15.81
2023-05-10T13:31:11.674Z,15.71
2023-05-10T13:33:38.502Z,15.74
2023-05-10T13:36:05.705Z,15.76
2023-05-10T13:38:32.472Z,15.76
2023-05-10T13:40:59.360Z,15.77
2023-05-10T13:43:26.077Z,15.65
2023-05-10T13:45:53.450Z,15.52
2023-05-10T13:48:20.149Z,15.59
2023-05-10T13:50:47.529Z,15.53
2023-05-10T13:53:14.385Z,15.54
2023-05-10T13:56:37.683Z,15.71
2023-05-10T13:59:04.456Z,15.87
2023-05-10T14:01:31.324Z,15.96
2023-05-10T14:03:58.237Z,15.94
2023-05-10T14:06:25.155Z,15.73
2023-05-10T14:08:52.358Z,15.85
2023-05-10T14:11:19.396Z,15.79
2023-05-10T14:13:46.308Z,15.75
2023-05-10T14:16:13.356Z,15.63
2023-05-10T14:18:40.290Z,15.60
2023-05-10T14:21:07.333Z,15.62
2023-05-10T14:23:34.142Z,15.91
2023-05-10T14:26:00.955Z,15.81
2023-05-10T14:28:27.736Z,15.82
2023-05-10T14:30:54.620Z,15.86
2023-05-10T14:33:22.011Z,15.76
2023-05-10T14:35:49.242Z,15.82
2023-05-10T14:38:16.002Z,15.88
2023-05-10T14:40:43.899Z,15.75
2023-05-10T14:43:10.653Z,15.66
2023-05-10T14:45:37.521Z,15.57
2023-05-10T14:48:05.964Z,15.60
2023-05-10T14:50:36.992Z,15.67
2023-05-10T14:53:38.397Z,15.73
2023-05-10T14:56:05.377Z,15.69
2023-05-10T14:58:34.019Z,15.69
2023-05-10T15:01:01.473Z,15.65
2023-05-10T15:03:28.942Z,15.45
2023-05-10T15:05:59.104Z,15.48
2023-05-10T15:08:26.356Z,15.42
2023-05-10T15:10:53.669Z,15.38
2023-05-10T15:13:21.074Z,15.41
2023-05-10T15:15:47.842Z,15.44
2023-05-10T15:18:14.584Z,15.48
2023-05-10T15:20:41.335Z,15.32
2023-05-10T15:23:08.321Z,15.35
2023-05-10T15:25:38.718Z,15.45
2023-05-10T15:28:08.825Z,15.44
2023-05-10T15:30:35.560Z,15.47
2023-05-10T15:33:02.854Z,15.46
2023-05-10T15:35:29.718Z,15.42
2023-05-10T15:37:56.451Z,15.54
2023-05-10T15:40:23.260Z,15.54
2023-05-10T15:42:50.043Z,15.48
2023-05-10T15:45:16.983Z,15.35
2023-05-10T15:47:45.353Z,15.31
2023-05-10T15:50:12.739Z,15.26
2023-05-10T15:52:39.527Z,15.24
2023-05-10T15:55:13.912Z,15.26
2023-05-10T15:57:41.853Z,15.26
2023-05-10T16:00:09.903Z,15.24
2023-05-10T16:02:36.860Z,15.14
2023-05-10T16:05:04.434Z,15.13
2023-05-10T16:07:31.277Z,15.14
2023-05-10T16:09:58.112Z,15.09
2023-05-10T16:12:25.834Z,15.05
2023-05-10T16:14:52.569Z,15.03
2023-05-10T16:17:20.686Z,15.05
2023-05-10T16:19:47.767Z,15.06
2023-05-10T16:22:15.183Z,14.91
2023-05-10T16:24:42.730Z,14.98
2023-05-10T16:27:10.447Z,14.93
2023-05-10T16:29:37.197Z,14.95
2023-05-10T16:32:03.923Z,14.71
2023-05-10T16:34:30.735Z,14.83
2023-05-10T16:36:57.473Z,14.82
2023-05-10T16:39:24.332Z,14.77
2023-05-10T16:41:51.086Z,14.69
2023-05-10T16:44:20.587Z,14.62
2023-05-10T16:46:47.981Z,14.58
2023-05-10T16:49:14.865Z,14.57
2023-05-10T16:51:41.684Z,14.50
2023-05-10T16:54:08.547Z,14.48
2023-05-10T16:56:35.292Z,14.50
2023-05-10T16:59:02.062Z,14.48
2023-05-10T17:01:28.830Z,14.39
2023-05-10T17:03:55.951Z,14.41
2023-05-10T17:06:22.760Z,14.39
2023-05-10T17:08:49.520Z,14.33
2023-05-10T17:11:16.239Z,14.32
2023-05-10T17:13:42.992Z,14.22
2023-05-10T17:16:09.859Z,14.22
2023-05-10T17:18:36.808Z,14.17
2023-05-10T17:21:03.771Z,14.08
2023-05-10T17:23:30.674Z,14.05
2023-05-10T17:25:58.995Z,13.98
2023-05-10T17:28:27.056Z,13.95
2023-05-10T17:30:58.065Z,13.90
2023-05-10T17:33:24.788Z,13.74
2023-05-10T17:35:52.160Z,13.73
2023-05-10T17:38:18.827Z,13.68
2023-05-10T17:40:45.589Z,13.64
2023-05-10T17:43:12.296Z,13.57
2023-05-10T17:45:40.182Z,13.54
2023-05-10T17:48:08.005Z,13.49
2023-05-10T17:50:35.622Z,13.42
2023-05-10T17:53:03.083Z,13.31
2023-05-10T17:55:31.049Z,13.26
2023-05-10T17:57:59.740Z,13.14
2023-05-10T18:00:26.780Z,13.11
2023-05-10T18:02:53.655Z,12.66
2023-05-10T18:05:22.121Z,12.67
2023-05-10T18:07:49.226Z,12.93
2023-05-10T18:10:15.980Z,12.81
2023-05-10T18:12:42.797Z,12.41
2023-05-10T18:15:10.021Z,12.43
2023-05-10T18:17:37.213Z,12.55
2023-05-10T18:20:04.280Z,12.42
2023-05-10T18:22:31.012Z,12.43
2023-05-10T18:24:57.691Z,12.37
2023-05-10T18:27:24.638Z,12.20
2023-05-10T18:29:52.275Z,12.19
2023-05-10T18:32:19.200Z,12.13
2023-05-10T18:34:46.094Z,11.92
2023-05-10T18:37:12.955Z,11.94
2023-05-10T18:39:40.102Z,11.92
2023-05-10T18:42:07.986Z,11.77
2023-05-10T18:44:34.868Z,11.76
2023-05-10T18:47:01.717Z,11.72
2023-05-10T18:49:29.558Z,11.66
2023-05-10T18:51:56.474Z,11.57
2023-05-10T18:54:23.352Z,11.53
2023-05-10T18:56:50.215Z,11.50
2023-05-10T18:59:17.020Z,11.46
2023-05-10T19:01:43.771Z,11.26
2023-05-10T19:04:10.968Z,11.38
2023-05-10T19:06:38.183Z,11.33
2023-05-10T19:09:05.481Z,11.31
2023-05-10T19:11:34.948Z,11.25
2023-05-10T19:14:02.916Z,11.22
2023-05-10T19:16:30.961Z,11.16
2023-05-10T19:18:58.175Z,11.12
2023-05-10T19:21:25.747Z,11.07
2023-05-10T19:23:54.042Z,11.02
2023-05-10T19:26:22.560Z,11.00
2023-05-10T19:28:52.981Z,10.94
2023-05-10T19:31:21.061Z,10.78
2023-05-10T19:33:47.997Z,10.87
2023-05-10T19:36:14.788Z,10.81
2023-05-10T19:38:41.853Z,10.77
2023-05-10T19:41:11.147Z,10.73
2023-05-10T19:43:38.718Z,10.72
2023-05-10T19:46:05.465Z,10.63
2023-05-10T19:48:32.361Z,10.57
2023-05-10T19:51:03.467Z,10.61
2023-05-10T19:53:30.574Z,10.60
2023-05-10T19:56:03.981Z,10.46
2023-05-10T19:58:30.918Z,10.54
2023-05-10T20:00:57.816Z,10.50
2023-05-10T20:03:24.647Z,10.48
2023-05-10T20:05:51.491Z,10.52
2023-05-10T20:08:18.128Z,10.46
2023-05-10T20:10:44.814Z,10.45
2023-05-10T20:13:11.684Z,10.40
2023-05-10T20:15:38.389Z,10.41
2023-05-10T20:18:05.280Z,10.34
2023-05-10T20:20:32.223Z,10.37
2023-05-10T20:23:00.013Z,10.28
2023-05-10T20:25:26.808Z,10.13
2023-05-10T20:27:53.872Z,10.28
2023-05-10T20:30:20.790Z,10.22
2023-05-10T20:32:48.974Z,10.25
2023-05-10T20:35:15.899Z,10.21
2023-05-10T20:37:42.577Z,10.07
2023-05-10T20:40:09.747Z,10.20
2023-05-10T20:42:36.560Z,10.13
2023-05-10T20:45:03.596Z,9.87
2023-05-10T20:47:30.398Z,9.98
2023-05-10T20:49:57.168Z,10.13
2023-05-10T20:52:24.734Z,9.97
2023-05-10T20:54:51.974Z,10.05
2023-05-10T20:57:18.691Z,10.00
2023-05-10T20:59:46.420Z,10.01
2023-05-10T21:02:13.150Z,9.98
2023-05-10T21:04:51.159Z,9.97
2023-05-10T21:07:19.019Z,9.95
2023-05-10T21:09:45.806Z,9.92
2023-05-10T21:12:13.431Z,9.94
2023-05-10T21:14:42.184Z,9.88
2023-05-10T21:17:09.108Z,9.93
2023-05-10T21:19:35.761Z,9.82
2023-05-10T21:22:03.628Z,9.76
2023-05-10T21:24:30.698Z,9.76
2023-05-10T21:26:57.520Z,9.74
2023-05-10T21:29:24.168Z,9.69
2023-05-10T21:31:51.235Z,9.61
2023-05-10T21:34:18.136Z,9.57
2023-05-10T21:36:44.981Z,9.58
2023-05-10T21:39:11.937Z,9.54
2023-05-10T21:41:38.705Z,9.44
2023-05-10T21:44:05.537Z,9.35
2023-05-10T21:46:32.247Z,9.37
2023-05-10T21:48:58.895Z,9.32
2023-05-10T21:51:25.654Z,9.25
2023-05-10T21:53:52.319Z,9.27
2023-05-10T21:56:19.025Z,9.24
2023-05-10T21:58:45.901Z,9.16
2023-05-10T22:01:14.759Z,9.07
2023-05-10T22:03:41.471Z,9.11
2023-05-10T22:06:08.662Z,9.04
2023-05-10T22:08:35.721Z,8.99
2023-05-10T22:11:02.412Z,9.00
2023-05-10T22:13:29.327Z,9.04
2023-05-10T22:15:55.930Z,8.99
2023-05-10T22:18:22.643Z,8.98
2023-05-10T22:20:49.301Z,8.97
2023-05-10T22:23:16.210Z,8.93
2023-05-10T22:25:42.918Z,8.94
2023-05-10T22:28:09.669Z,8.90
2023-05-10T22:30:36.364Z,8.75
2023-05-10T22:33:03.152Z,8.89
2023-05-10T22:35:29.979Z,8.88
2023-05-10T22:37:56.816Z,8.97
2023-05-10T22:40:23.459Z,8.91
2023-05-10T22:42:50.213Z,8.92
2023-05-10T22:45:16.978Z,8.92
2023-05-10T22:47:43.735Z,8.94
2023-05-10T22:50:11.898Z,8.80
2023-05-10T22:52:39.576Z,8.94
2023-05-10T22:55:07.304Z,8.88
2023-05-10T22:57:34.509Z,8.73
2023-05-10T23:00:01.504Z,8.76
2023-05-10T23:02:28.158Z,8.73
2023-05-10T23:04:54.890Z,8.66
2023-05-10T23:07:21.576Z,8.65
2023-05-10T23:09:49.030Z,8.61
2023-05-10T23:12:15.822Z,8.60
2023-05-10T23:14:42.578Z,8.65
2023-05-10T23:17:09.212Z,8.48
2023-05-10T23:19:35.860Z,8.55
2023-05-10T23:22:02.459Z,8.50
2023-05-10T23:24:29.397Z,8.45
2023-05-10T23:26:56.212Z,8.37
2023-05-10T23:29:24.122Z,8.33
2023-05-10T23:31:51.447Z,8.28
2023-05-10T23:34:18.418Z,8.24
2023-05-10T23:36:45.027Z,8.24
2023-05-10T23:39:12.256Z,8.04
2023-05-10T23:41:38.980Z,8.16
2023-05-10T23:44:05.727Z,8.18
2023-05-10T23:46:32.416Z,8.14
2023-05-10T23:48:59.195Z,8.13
2023-05-10T23:51:26.185Z,8.07
2023-05-10T23:53:52.857Z,8.08
2023-05-10T23:56:21.865Z,8.02
2023-05-10T23:58:48.622Z,7.99
